SHDP weather

Del Pacifico Heliport
Temuco, Araucanía Region, Chile

Public forecast

Using degrees Celsius for public forecast. Weather courtesy of forecast.io.

Closest aviation weather report (METAR) to Del Pacifico Heliport

Report is more than 6 hours old.

Closest report is Maquehue Airport, 7.8 nm (14.4 km) E. Retrieved 2014/07/28 22:00 UTC (6 years ago):

SCTC 282200Z VRB03KT 9999 FEW015 SCT025 BKN150 13/10 Q1013

Closest aviation forecast (TAF) to Del Pacifico Heliport

Forecast is more than 12 hours old.

Closest forecast is Maquehue Airport, 7.8 nm (14.4 km) E. Retrieved 2014/07/28 18:49 UTC (6 years ago):

TAF SCTC 281631Z 2818/2918 33006KT 9999 BKN017 TX15/2818Z TN06/2912Z BECMG 2901/2903 02010KT SCT020 OVC035 PROB30 TEMPO 2905/2910 33007KT 7000 -SHRA BKN020 BECMG 2911/2913 9999 SCT035